Time;durP1;ratioP1;P1;durP2;ratioP2;P2;SDS_P1;SDS_P2;PMS_P1;PMS_P2;Temp;Humidity;BMP_temperature;BMP_pressure;BME280_temperature;BME280_humidity;BME280_pressure;Samples;Min_cycle;Max_cycle;Signal;HPM_P1;HPM_P2
2023/03/15 00:01:23;;;;;;;;;7.50;7.50;;;;;10.96;99.90;98271.00;6287879;20;2738879;-49
2023/03/15 00:03:50;;;;;;;;;11.00;10.00;;;;;10.82;100.00;98271.31;6314608;20;2779505;-52
2023/03/15 00:06:19;;;;;;;;;11.67;10.00;;;;;10.89;99.64;98269.81;6282526;20;3529512;-52
2023/03/15 00:08:47;;;;;;;;;13.00;13.00;;;;;10.89;98.56;98267.13;6313437;20;2677473;-53
2023/03/15 00:11:17;;;;;;;;;13.33;13.33;;;;;10.83;98.66;98265.81;6280325;20;2783678;-54
2023/03/15 00:13:46;;;;;;;;;12.50;12.00;;;;;10.82;98.13;98266.81;6315462;20;2789848;-48
2023/03/15 00:16:16;;;;;;;;;16.00;12.00;;;;;10.80;98.12;98262.56;6284300;20;2793009;-52
2023/03/15 00:18:46;;;;;;;;;14.00;14.00;;;;;10.90;97.43;98266.13;6317518;20;2808976;-50
2023/03/15 00:21:15;;;;;;;;;12.00;10.33;;;;;10.92;96.91;98272.22;6282545;20;3503332;-54
2023/03/15 00:23:44;;;;;;;;;16.00;14.00;;;;;10.72;97.37;98282.00;6311938;20;3546398;-51
2023/03/15 00:26:13;;;;;;;;;15.33;13.67;;;;;10.80;96.12;98289.41;6284803;20;3542992;-53
2023/03/15 00:28:41;;;;;;;;;12.00;11.00;;;;;10.85;94.87;98292.50;6314166;20;2794226;-52
2023/03/15 00:31:23;;;;;;;;;16.00;12.00;;;;;10.70;93.85;98295.53;6282115;20;2814859;-52
2023/03/15 00:33:52;;;;;;;;;12.50;11.00;;;;;10.79;93.79;98293.03;6284841;20;2793047;-52
2023/03/15 00:36:22;;;;;;;;;13.00;12.00;;;;;10.66;92.62;98302.13;6284802;20;2789221;-53
2023/03/15 00:38:53;;;;;;;;;12.00;11.00;;;;;10.75;92.46;98300.53;6284020;20;2784632;-50
2023/03/15 00:41:22;;;;;;;;;13.00;13.00;;;;;10.79;91.28;98303.78;6285169;20;2803471;-53
2023/03/15 00:43:51;;;;;;;;;14.00;13.00;;;;;10.66;90.29;98288.72;6283622;20;3539876;-51
2023/03/15 00:46:19;;;;;;;;;10.00;9.00;;;;;10.63;90.57;98288.97;6321025;20;2760784;-52
2023/03/15 00:48:50;;;;;;;;;12.00;12.00;;;;;10.57;90.60;98289.50;6285607;20;2794151;-53
2023/03/15 00:51:23;;;;;;;;;11.20;11.20;;;;;10.55;90.32;98288.75;6306458;20;2799227;-51
2023/03/15 00:53:53;;;;;;;;;8.80;8.00;;;;;10.42;91.07;98298.81;6309704;20;2745105;-50
2023/03/15 00:56:28;;;;;;;;;9.60;9.40;;;;;10.38;90.59;98294.72;6340219;20;2762818;-51
2023/03/15 00:58:57;;;;;;;;;10.00;10.00;;;;;10.40;90.77;98287.34;6282368;20;2781539;-53
2023/03/15 01:01:29;;;;;;;;;5.00;5.00;;;;;10.33;91.26;98287.03;6301200;20;1813939;-52
2023/03/15 01:03:57;;;;;;;;;7.00;7.00;;;;;10.32;91.29;98283.50;6316743;20;2745132;-51
2023/03/15 01:06:28;;;;;;;;;7.00;6.00;;;;;10.21;91.41;98286.19;6285549;20;2740875;-50
2023/03/15 01:08:58;;;;;;;;;10.00;8.20;;;;;10.29;91.18;98280.22;6340801;20;2758617;-52
2023/03/15 01:11:27;;;;;;;;;9.00;9.00;;;;;10.06;91.55;98277.59;6283391;20;2756574;-52
2023/03/15 01:13:58;;;;;;;;;11.50;7.00;;;;;10.17;91.81;98281.22;6282693;20;2769144;-50
2023/03/15 01:16:28;;;;;;;;;13.00;11.00;;;;;10.24;90.75;98277.91;6306484;20;2794033;-51
2023/03/15 01:18:57;;;;;;;;;11.00;10.00;;;;;10.22;90.67;98274.50;6282964;20;2793051;-50
2023/03/15 01:21:25;;;;;;;;;8.50;8.50;;;;;10.18;90.68;98272.19;6313104;20;2750354;-52
2023/03/15 01:23:53;;;;;;;;;10.00;10.00;;;;;10.14;89.72;98274.28;6280519;20;2793074;-51
2023/03/15 01:26:25;;;;;;;;;8.14;8.14;;;;;10.12;89.85;98270.84;6327256;20;1804420;-49
2023/03/15 01:28:53;;;;;;;;;10.00;9.00;;;;;10.09;89.54;98265.75;6312516;20;2769062;-47
2023/03/15 01:31:27;;;;;;;;;9.00;6.00;;;;;9.96;90.00;98263.22;6280542;20;2754486;-52
2023/03/15 01:33:56;;;;;;;;;9.00;9.00;;;;;9.91;90.06;98260.06;6284806;20;2744038;-53
2023/03/15 01:36:24;;;;;;;;;9.00;9.00;;;;;10.01;90.52;98270.91;6284567;20;2761495;-52
2023/03/15 01:38:54;;;;;;;;;11.80;11.80;;;;;10.09;90.10;98265.75;6305332;20;2787776;-53
2023/03/15 01:41:24;;;;;;;;;9.50;8.00;;;;;10.04;89.51;98262.59;6284796;20;2751484;-52
2023/03/15 01:43:53;;;;;;;;;9.00;6.50;;;;;9.97;89.41;98267.59;6285270;20;2742003;-48
2023/03/15 01:46:33;;;;;;;;;8.50;6.00;;;;;10.02;88.77;98273.44;6284276;20;2756660;-50
2023/03/15 01:49:14;;;;;;;;;7.00;7.00;;;;;9.90;88.93;98261.06;6284531;20;2745078;-49
2023/03/15 01:52:00;;;;;;;;;10.00;9.00;;;;;9.66;89.49;98259.38;6281343;20;2750329;-50
2023/03/15 01:54:49;;;;;;;;;5.00;3.75;;;;;9.91;88.76;98262.75;6296693;20;1817043;-52
2023/03/15 01:57:35;;;;;;;;;8.50;6.00;;;;;9.71;89.50;98250.09;6327137;20;1805453;-51
2023/03/15 02:00:16;;;;;;;;;6.00;6.00;;;;;9.60;90.19;98248.28;6313738;20;2744092;-48
2023/03/15 02:03:13;;;;;;;;;6.50;5.00;;;;;9.74;90.47;98248.06;6314472;20;2744026;-49
2023/03/15 02:06:00;;;;;;;;;8.00;5.00;;;;;9.52;91.58;98248.91;6313701;20;2739907;-47
2023/03/15 02:08:40;;;;;;;;;9.50;6.50;;;;;9.48;92.25;98239.44;6311563;20;2751501;-48
2023/03/15 02:11:11;;;;;;;;;5.50;3.75;;;;;9.37;91.83;98242.97;6295709;20;1819122;-50
2023/03/15 02:13:39;;;;;;;;;3.00;3.00;;;;;9.44;91.82;98246.84;6312852;20;2748363;-48
2023/03/15 02:16:07;;;;;;;;;0.50;0.00;;;;;9.47;92.37;98252.94;6296529;20;1805181;-48
2023/03/15 02:18:35;;;;;;;;;4.50;4.50;;;;;9.41;91.84;98246.25;6311751;20;2745107;-52
2023/03/15 02:21:43;;;;;;;;;5.20;5.00;;;;;9.29;91.82;98236.50;6321447;20;2475316;-50
2023/03/15 02:25:03;;;;;;;;;4.00;4.00;;;;;9.30;92.28;98246.25;6312829;20;2754492;-51
2023/03/15 02:27:35;;;;;;;;;4.25;4.25;;;;;9.34;91.37;98245.03;6296583;20;1809847;-50
2023/03/15 02:30:06;;;;;;;;;4.00;4.00;;;;;9.37;91.13;98251.00;6311923;20;2740937;-53
2023/03/15 02:32:34;;;;;;;;;6.00;6.00;;;;;9.27;90.88;98243.81;6281616;20;2738915;-48
2023/03/15 02:35:01;;;;;;;;;4.00;4.00;;;;;9.32;90.71;98258.56;6312957;20;2746151;-51
2023/03/15 02:37:29;;;;;;;;;8.00;8.00;;;;;9.30;90.91;98255.16;6280838;20;2731502;-49
2023/03/15 02:39:57;;;;;;;;;4.00;4.00;;;;;9.26;90.87;98250.16;6315769;20;2738922;-49
2023/03/15 02:42:25;;;;;;;;;5.00;5.00;;;;;9.42;90.33;98259.50;6315458;20;2742320;-48
2023/03/15 02:44:55;;;;;;;;;9.50;7.00;;;;;9.37;89.89;98261.72;6281737;20;2751390;-49
2023/03/15 02:47:31;;;;;;;;;5.00;5.00;;;;;9.25;89.90;98257.34;6283616;20;2730641;-50
2023/03/15 02:49:59;;;;;;;;;6.00;6.00;;;;;9.30;89.47;98260.50;6310955;20;2739821;-48
2023/03/15 02:52:27;;;;;;;;;5.75;5.75;;;;;9.43;89.04;98263.06;6296825;20;1812899;-49
2023/03/15 02:54:55;;;;;;;;;5.50;5.00;;;;;9.41;88.28;98267.69;6313680;20;2748147;-51
2023/03/15 02:57:23;;;;;;;;;6.00;4.50;;;;;9.32;88.59;98271.94;6283075;20;2737847;-50
2023/03/15 02:59:51;;;;;;;;;4.00;4.00;;;;;9.42;88.19;98270.22;6280607;20;2736755;-50
2023/03/15 03:02:19;;;;;;;;;5.00;5.00;;;;;9.23;88.42;98275.34;6281886;20;2741440;-51
2023/03/15 03:04:48;;;;;;;;;7.75;5.75;;;;;9.30;88.45;98273.88;6327824;20;1809805;-51
2023/03/15 03:07:16;;;;;;;;;7.00;6.00;;;;;9.16;88.27;98271.44;6313355;20;2748222;-51
2023/03/15 03:09:43;;;;;;;;;5.00;5.00;;;;;9.24;88.43;98263.63;6282102;20;2731689;-49
2023/03/15 03:12:11;;;;;;;;;5.00;5.00;;;;;9.26;88.53;98269.75;6313007;20;2739607;-52
2023/03/15 03:14:42;;;;;;;;;5.50;4.50;;;;;9.21;88.30;98264.72;6313038;20;2749219;-51
2023/03/15 03:17:09;;;;;;;;;4.00;4.00;;;;;9.15;88.08;98262.56;6283424;20;2756597;-53
2023/03/15 03:19:37;;;;;;;;;5.50;5.00;;;;;9.20;88.09;98263.03;6280018;20;2745176;-48
2023/03/15 03:22:06;;;;;;;;;4.00;4.00;;;;;9.15;88.88;98257.19;6297472;20;1816011;-52
2023/03/15 03:24:33;;;;;;;;;6.00;4.00;;;;;9.15;88.26;98269.75;6313624;20;2749797;-50
2023/03/15 03:27:01;;;;;;;;;5.00;5.00;;;;;9.25;88.48;98262.69;6280864;20;2725384;-52
2023/03/15 03:29:29;;;;;;;;;6.00;6.00;;;;;9.16;87.80;98264.28;6313733;20;2737943;-48
2023/03/15 03:31:57;;;;;;;;;4.00;4.00;;;;;9.16;87.68;98271.44;6311438;20;2749286;-52
2023/03/15 03:34:24;;;;;;;;;7.50;5.50;;;;;9.16;87.30;98268.75;6282029;20;2739867;-50
2023/03/15 03:36:52;;;;;;;;;6.00;4.50;;;;;9.04;88.29;98275.09;6282358;20;2746611;-49
2023/03/15 03:39:20;;;;;;;;;7.00;4.50;;;;;9.07;88.13;98275.69;6314855;20;2742967;-53
2023/03/15 03:41:48;;;;;;;;;5.00;4.00;;;;;9.07;88.29;98273.00;6284829;20;2754973;-53
2023/03/15 03:44:18;;;;;;;;;2.00;2.00;;;;;9.19;87.72;98277.41;6303115;20;1803897;-53
2023/03/15 03:46:46;;;;;;;;;5.00;5.00;;;;;9.11;87.51;98270.94;6317003;20;2743001;-50
2023/03/15 03:49:14;;;;;;;;;5.00;5.00;;;;;9.04;87.48;98275.09;6287201;20;2751364;-50
2023/03/15 03:51:41;;;;;;;;;8.50;4.00;;;;;8.94;87.17;98275.78;6283809;20;2741941;-50
2023/03/15 03:54:12;;;;;;;;;5.17;4.67;;;;;8.94;86.76;98281.16;6328528;20;1804490;-50
2023/03/15 03:56:40;;;;;;;;;6.00;3.00;;;;;9.04;86.74;98275.94;6288935;20;2754452;-48
2023/03/15 03:59:09;;;;;;;;;5.00;5.00;;;;;9.04;86.77;98272.41;6288594;20;2725292;-50
2023/03/15 04:01:37;;;;;;;;;5.50;5.00;;;;;9.09;86.52;98278.25;6316216;20;2744056;-50
2023/03/15 04:04:05;;;;;;;;;4.00;4.00;;;;;9.00;86.43;98285.16;6286444;20;2756622;-49
2023/03/15 04:06:33;;;;;;;;;10.00;5.50;;;;;8.98;85.50;98274.59;6285421;20;2753626;-52
2023/03/15 04:09:03;;;;;;;;;5.00;5.00;;;;;8.96;85.90;98276.53;6288053;20;2739888;-51
2023/03/15 04:11:31;;;;;;;;;4.50;3.00;;;;;9.13;85.43;98285.06;6284790;20;2755033;-52
2023/03/15 04:13:59;;;;;;;;;3.00;3.00;;;;;8.97;85.75;98278.22;6287626;20;2739856;-50
2023/03/15 04:16:26;;;;;;;;;3.00;3.00;;;;;9.08;85.52;98287.25;6284630;20;2748200;-50
2023/03/15 04:18:55;;;;;;;;;3.00;3.00;;;;;9.00;85.93;98280.69;6286729;20;2757009;-53
2023/03/15 04:21:23;;;;;;;;;3.00;3.00;;;;;8.90;84.69;98279.69;6280533;20;2738904;-53
2023/03/15 04:23:52;;;;;;;;;5.00;4.00;;;;;9.04;84.20;98292.00;6334050;20;1814017;-52
2023/03/15 04:26:20;;;;;;;;;4.00;4.00;;;;;8.94;84.30;98285.66;6317138;20;2748200;-50
2023/03/15 04:28:48;;;;;;;;;4.00;4.00;;;;;8.99;84.59;98289.66;6284329;20;2745083;-52
2023/03/15 04:31:15;;;;;;;;;3.00;3.00;;;;;8.95;84.46;98287.34;6281743;20;2756537;-52
2023/03/15 04:33:43;;;;;;;;;4.00;4.00;;;;;9.02;83.70;98291.25;6286748;20;2748297;-53
2023/03/15 04:36:17;;;;;;;;;4.00;2.00;;;;;8.94;84.03;98296.34;6285281;20;2752411;-50
2023/03/15 04:38:45;;;;;;;;;3.00;3.00;;;;;8.87;83.87;98295.97;6288384;20;2471121;-49
2023/03/15 04:41:16;;;;;;;;;4.00;4.00;;;;;9.05;83.60;98300.88;6328375;20;1813906;-49
2023/03/15 04:43:45;;;;;;;;;3.50;2.75;;;;;9.04;83.37;98301.88;6333070;20;1818075;-52
2023/03/15 04:46:13;;;;;;;;;4.00;4.00;;;;;8.93;83.46;98305.38;6317257;20;2751365;-52
2023/03/15 04:48:41;;;;;;;;;4.00;4.00;;;;;8.94;83.76;98302.56;6283173;20;2741959;-52
2023/03/15 04:51:09;;;;;;;;;4.00;4.00;;;;;8.79;85.23;98309.09;6327608;20;1813887;-50
2023/03/15 04:53:38;;;;;;;;;4.00;4.00;;;;;8.69;85.80;98308.06;6316578;20;2754543;-53
2023/03/15 04:56:06;;;;;;;;;3.00;3.00;;;;;8.85;86.00;98307.78;6285910;20;2739908;-53
2023/03/15 04:58:34;;;;;;;;;6.00;4.00;;;;;8.90;85.21;98301.09;6315265;20;2749256;-52
2023/03/15 05:01:02;;;;;;;;;5.00;5.00;;;;;8.61;86.21;98305.13;6282420;20;2750297;-51
2023/03/15 05:03:30;;;;;;;;;5.00;5.00;;;;;8.59;87.53;98310.63;6285471;20;2745098;-48
2023/03/15 05:05:57;;;;;;;;;5.00;3.50;;;;;8.56;87.34;98316.19;6286253;20;2746135;-50
2023/03/15 05:08:26;;;;;;;;;4.50;4.00;;;;;8.76;87.26;98314.69;6332946;20;1816038;-50
2023/03/15 05:10:54;;;;;;;;;4.00;4.00;;;;;8.63;87.99;98324.59;6314522;20;2746128;-49
2023/03/15 05:13:21;;;;;;;;;3.50;3.50;;;;;8.66;88.33;98319.00;6283795;20;2744051;-50
2023/03/15 05:15:50;;;;;;;;;5.75;4.00;;;;;8.60;88.08;98317.66;6301862;20;1821214;-50
2023/03/15 05:18:18;;;;;;;;;6.00;4.75;;;;;8.60;88.94;98324.84;6329916;20;1816289;-48
2023/03/15 05:20:46;;;;;;;;;4.00;4.00;;;;;8.45;88.80;98319.69;6312069;20;2744155;-52
2023/03/15 05:23:14;;;;;;;;;4.50;4.50;;;;;8.31;90.34;98330.50;6315902;20;2747190;-52
2023/03/15 05:25:42;;;;;;;;;4.00;4.00;;;;;8.22;90.13;98331.19;6284466;20;2751341;-50
2023/03/15 05:28:10;;;;;;;;;4.50;4.00;;;;;8.33;91.70;98323.22;6284391;20;2756650;-51
2023/03/15 05:30:37;;;;;;;;;2.50;2.50;;;;;8.22;91.93;98332.06;6282582;20;2756525;-49
2023/03/15 05:33:06;;;;;;;;;5.25;5.25;;;;;8.26;92.23;98332.66;6300057;20;1813358;-52
2023/03/15 05:35:34;;;;;;;;;3.75;3.75;;;;;8.26;92.86;98335.34;6331290;20;1822106;-53
2023/03/15 05:38:03;;;;;;;;;4.00;4.00;;;;;8.40;92.17;98339.69;6315250;20;2755569;-52
2023/03/15 05:40:31;;;;;;;;;6.00;4.50;;;;;8.31;92.20;98335.84;6281179;20;2750334;-54
2023/03/15 05:42:59;;;;;;;;;9.00;8.00;;;;;8.18;92.76;98335.91;6283306;20;2743999;-53
2023/03/15 05:45:30;;;;;;;;;6.33;6.00;;;;;8.18;91.67;98340.41;6323151;20;1802380;-54
2023/03/15 05:47:59;;;;;;;;;9.60;8.60;;;;;8.20;91.51;98338.47;6307588;20;2746075;-54
2023/03/15 05:50:27;;;;;;;;;8.00;6.00;;;;;8.29;91.47;98345.81;6314531;20;2736127;-56
2023/03/15 05:52:56;;;;;;;;;5.00;3.00;;;;;8.07;90.34;98344.72;6316179;20;2733696;-54
2023/03/15 05:55:26;;;;;;;;;8.67;8.00;;;;;8.06;89.84;98336.81;6354393;20;1809652;-56
2023/03/15 05:57:55;;;;;;;;;8.25;8.25;;;;;8.25;90.25;98341.66;6300991;20;1813884;-56
2023/03/15 06:00:23;;;;;;;;;5.00;5.00;;;;;8.14;91.11;98339.78;6313594;20;2747314;-51
2023/03/15 06:02:51;;;;;;;;;8.00;6.00;;;;;8.12;90.21;98347.91;6282241;20;2746110;-54
2023/03/15 06:05:19;;;;;;;;;9.25;8.00;;;;;7.96;90.59;98344.66;6292540;20;1804013;-53
2023/03/15 06:07:47;;;;;;;;;18.00;15.00;;;;;8.11;89.64;98348.88;6311692;20;2806576;-53
2023/03/15 06:10:15;;;;;;;;;17.50;15.00;;;;;8.16;89.08;98345.00;6283934;20;2828407;-49
2023/03/15 06:12:43;;;;;;;;;22.50;19.50;;;;;8.29;88.75;98351.16;6276030;20;2500382;-54
2023/03/15 06:15:11;;;;;;;;;27.00;20.00;;;;;8.18;87.93;98348.41;6282747;20;2847256;-55
2023/03/15 06:17:40;;;;;;;;;18.00;17.67;;;;;8.11;88.93;98356.91;6276460;20;3577386;-52
2023/03/15 06:20:09;;;;;;;;;34.00;22.50;;;;;8.11;88.21;98364.06;6275970;20;2496094;-53
2023/03/15 06:22:37;;;;;;;;;20.00;14.50;;;;;8.06;88.98;98369.75;6280453;20;2822382;-54
2023/03/15 06:25:07;;;;;;;;;21.50;19.00;;;;;7.95;88.75;98372.31;6274144;20;2500348;-53
2023/03/15 06:27:38;;;;;;;;;9.57;9.57;;;;;8.00;88.55;98380.84;6322232;20;1801341;-54
2023/03/15 06:30:07;;;;;;;;;20.00;17.50;;;;;7.93;88.81;98387.63;6311343;20;2823235;-53
2023/03/15 06:32:36;;;;;;;;;25.00;19.50;;;;;7.84;89.18;98388.28;6278466;20;2833825;-56
2023/03/15 06:35:07;;;;;;;;;13.29;9.14;;;;;7.98;88.62;98390.84;6319467;20;1800327;-57
2023/03/15 06:37:36;;;;;;;;;23.67;19.33;;;;;7.78;89.25;98384.22;6305832;20;3571150;-54
2023/03/15 06:40:11;;;;;;;;;23.50;20.00;;;;;7.94;88.90;98381.31;6274933;20;2500257;-54
2023/03/15 06:42:40;;;;;;;;;16.67;13.67;;;;;8.07;88.15;98371.44;6279179;20;3541937;-52
2023/03/15 06:45:10;;;;;;;;;14.00;12.00;;;;;7.88;88.36;98376.41;6276360;20;2794044;-53
2023/03/15 06:47:38;;;;;;;;;17.00;12.00;;;;;7.87;89.35;98380.03;6307988;20;2798342;-53
2023/03/15 06:50:08;;;;;;;;;18.50;15.50;;;;;7.71;89.63;98390.97;6278150;20;3501470;-54
2023/03/15 06:52:37;;;;;;;;;26.00;21.00;;;;;7.95;89.68;98388.34;6307280;20;2834666;-57
2023/03/15 06:55:06;;;;;;;;;17.00;16.00;;;;;7.84;89.22;98396.28;6278275;20;2500308;-53
2023/03/15 06:57:34;;;;;;;;;11.00;11.00;;;;;7.60;89.04;98396.22;6279975;20;2789333;-57
2023/03/15 07:00:09;;;;;;;;;12.67;12.67;;;;;7.57;89.59;98389.25;6279342;20;2806613;-54
2023/03/15 07:02:38;;;;;;;;;8.00;8.00;;;;;7.66;89.17;98391.31;6310890;20;2739906;-58
2023/03/15 07:05:07;;;;;;;;;13.00;13.00;;;;;7.67;89.48;98400.16;6309973;20;3538891;-55
2023/03/15 07:07:36;;;;;;;;;12.33;12.00;;;;;7.69;89.08;98409.78;6308430;20;3525311;-54
2023/03/15 07:10:04;;;;;;;;;12.50;10.00;;;;;7.39;89.72;98406.56;6310232;20;2786784;-56
2023/03/15 07:12:33;;;;;;;;;14.00;14.00;;;;;7.47;89.29;98406.91;6278665;20;3539875;-55
2023/03/15 07:15:01;;;;;;;;;14.00;14.00;;;;;7.56;89.09;98408.94;6317268;20;2803420;-56
2023/03/15 07:17:29;;;;;;;;;13.50;11.00;;;;;7.36;89.02;98414.81;6283124;20;2791916;-57
2023/03/15 07:19:57;;;;;;;;;15.33;13.67;;;;;7.43;89.24;98424.09;6285122;20;3544087;-58
2023/03/15 07:22:26;;;;;;;;;13.00;12.33;;;;;7.46;89.88;98423.88;6312501;20;3509692;-58
2023/03/15 07:24:54;;;;;;;;;16.00;13.00;;;;;7.26;89.72;98420.75;6314414;20;2799390;-56
2023/03/15 07:27:23;;;;;;;;;13.33;11.33;;;;;7.47;89.84;98425.59;6315051;20;2795187;-57
2023/03/15 07:29:50;;;;;;;;;10.00;10.00;;;;;7.30;89.61;98424.09;6316199;20;2798215;-58
2023/03/15 07:32:19;;;;;;;;;13.33;12.00;;;;;7.39;90.45;98422.59;6284979;20;3529560;-59
2023/03/15 07:34:47;;;;;;;;;10.00;10.00;;;;;7.34;89.99;98424.72;6318293;20;2784719;-59
2023/03/15 07:37:16;;;;;;;;;15.00;13.00;;;;;7.22;91.11;98424.63;6286794;20;2804552;-59
2023/03/15 07:39:44;;;;;;;;;9.00;6.00;;;;;6.97;92.28;98432.56;6288517;20;2751440;-59
2023/03/15 07:42:12;;;;;;;;;21.33;14.00;;;;;7.11;92.55;98435.16;6282911;20;3549378;-59
2023/03/15 07:44:42;;;;;;;;;16.60;11.80;;;;;7.10;92.97;98432.59;6338518;20;2796123;-59
2023/03/15 07:47:10;;;;;;;;;14.33;14.00;;;;;7.13;92.99;98438.56;6285885;20;3536722;-59
2023/03/15 07:49:38;;;;;;;;;9.00;9.00;;;;;7.11;93.16;98427.16;6316344;20;2735787;-58
2023/03/15 07:52:07;;;;;;;;;25.00;20.00;;;;;6.99;93.33;98435.97;6289079;20;2834709;-59
2023/03/15 07:54:35;;;;;;;;;18.00;13.00;;;;;7.11;93.05;98435.16;6285253;20;3550282;-59
2023/03/15 07:57:04;;;;;;;;;13.00;10.00;;;;;7.04;93.05;98447.22;6315049;20;2781555;-58
2023/03/15 07:59:32;;;;;;;;;28.00;27.00;;;;;7.06;93.21;98447.09;6281511;20;2835696;-58
2023/03/15 08:02:01;;;;;;;;;18.33;17.00;;;;;7.09;93.43;98458.44;6285338;20;3548287;-58
2023/03/15 08:04:30;;;;;;;;;19.00;12.50;;;;;7.15;93.14;98471.34;6282470;20;2500385;-57
2023/03/15 08:06:58;;;;;;;;;9.50;9.00;;;;;6.99;94.12;98470.69;6305941;20;1814833;-56
2023/03/15 08:09:26;;;;;;;;;13.00;12.50;;;;;6.91;94.42;98475.66;6319285;20;2789916;-54
2023/03/15 08:11:54;;;;;;;;;13.50;12.50;;;;;6.89;94.54;98480.25;6289578;20;2787816;-55
2023/03/15 08:14:24;;;;;;;;;11.50;9.00;;;;;6.92;94.42;98483.56;6284956;20;2774267;-59
2023/03/15 08:16:52;;;;;;;;;9.50;9.00;;;;;6.89;95.95;98493.59;6284016;20;2768002;-56
2023/03/15 08:19:21;;;;;;;;;12.50;12.50;;;;;7.01;96.07;98492.78;6283530;20;2792057;-58
2023/03/15 08:21:52;;;;;;;;;11.00;9.00;;;;;6.76;97.45;98493.53;6302670;20;1798204;-55
2023/03/15 08:24:20;;;;;;;;;7.00;3.50;;;;;6.88;97.70;98499.88;6317884;20;2748209;-56
2023/03/15 08:26:52;;;;;;;;;10.43;9.00;;;;;6.64;97.22;98499.69;6357732;20;1804510;-54
2023/03/15 08:29:20;;;;;;;;;9.50;9.00;;;;;6.74;97.30;98501.66;6316398;20;2770146;-55
2023/03/15 08:31:48;;;;;;;;;10.00;8.00;;;;;6.57;96.77;98510.72;6283212;20;2771237;-55
2023/03/15 08:34:16;;;;;;;;;9.50;8.00;;;;;6.60;97.40;98517.66;6286233;20;2743445;-56
2023/03/15 08:36:46;;;;;;;;;5.00;5.00;;;;;6.67;97.40;98513.66;6318645;20;2748602;-56
2023/03/15 08:39:14;;;;;;;;;4.50;4.50;;;;;6.76;96.68;98526.38;6317210;20;2748326;-57
2023/03/15 08:41:44;;;;;;;;;8.25;4.00;;;;;6.51;97.55;98526.28;6299990;20;1820171;-54
2023/03/15 08:44:13;;;;;;;;;19.67;14.67;;;;;6.83;97.73;98529.53;6313886;20;3562802;-54
2023/03/15 08:46:40;;;;;;;;;14.00;9.50;;;;;6.76;97.17;98531.72;6315572;20;2782728;-50
2023/03/15 08:49:08;;;;;;;;;8.00;8.00;;;;;6.57;97.55;98537.38;6284398;20;2738947;-51
2023/03/15 08:51:38;;;;;;;;;10.80;10.20;;;;;6.80;97.96;98554.59;6302094;20;2780670;-48
2023/03/15 08:54:06;;;;;;;;;9.00;6.00;;;;;6.52;97.97;98547.50;6280436;20;2745102;-49
2023/03/15 08:56:35;;;;;;;;;13.60;11.20;;;;;6.76;98.11;98563.72;6340925;20;2796144;-50
2023/03/15 08:59:04;;;;;;;;;6.00;6.00;;;;;6.40;97.21;98556.28;6286932;20;2748343;-50
2023/03/15 09:01:33;;;;;;;;;13.00;10.67;;;;;6.58;98.24;98565.78;6310959;20;3518449;-50
2023/03/15 09:04:01;;;;;;;;;6.50;6.50;;;;;6.52;98.72;98567.97;6317162;20;2746138;-49
2023/03/15 09:06:30;;;;;;;;;9.50;6.00;;;;;6.55;98.72;98565.09;6285180;20;2753376;-49
2023/03/15 09:08:57;;;;;;;;;5.00;5.00;;;;;6.50;98.42;98568.09;6318825;20;2742065;-50
2023/03/15 09:11:25;;;;;;;;;9.00;6.00;;;;;6.55;99.82;98575.78;6311418;20;2729485;-52
2023/03/15 09:13:56;;;;;;;;;6.50;6.50;;;;;6.45;100.00;98579.97;6356163;20;1804568;-52
2023/03/15 09:16:24;;;;;;;;;5.00;5.00;;;;;6.50;100.00;98583.19;6305010;20;1815972;-51
2023/03/15 09:18:52;;;;;;;;;9.00;6.50;;;;;6.52;99.93;98589.31;6309881;20;2749521;-54
2023/03/15 09:21:20;;;;;;;;;8.00;5.00;;;;;6.40;100.00;98598.94;6278214;20;2747195;-54
2023/03/15 09:23:48;;;;;;;;;7.00;7.00;;;;;6.33;100.00;98603.78;6311864;20;2738863;-55
2023/03/15 09:26:16;;;;;;;;;5.00;5.00;;;;;6.26;100.00;98613.09;6303497;20;1814911;-56
2023/03/15 09:28:45;;;;;;;;;9.00;6.00;;;;;6.35;100.00;98617.88;6331379;20;1818105;-53
2023/03/15 09:31:12;;;;;;;;;9.00;7.00;;;;;6.29;100.00;98623.59;6310574;20;2756526;-52
2023/03/15 09:33:45;;;;;;;;;22.00;18.67;;;;;6.61;100.00;98634.06;6277310;20;3566974;-47
2023/03/15 09:36:13;;;;;;;;;9.00;5.00;;;;;6.51;100.00;98638.25;6283246;20;2752594;-49
2023/03/15 09:38:43;;;;;;;;;8.00;8.00;;;;;6.47;100.00;98644.72;6314271;20;2741994;-50
2023/03/15 09:41:42;;;;;;;;;12.50;12.00;;;;;6.48;100.00;98643.78;6276497;20;2789973;-53
2023/03/15 09:44:35;;;;;;;;;11.00;10.00;;;;;6.51;100.00;98662.25;6281914;20;2786762;-54
2023/03/15 09:47:15;;;;;;;;;16.60;14.00;;;;;6.51;100.00;98675.59;6305123;20;2804580;-54
2023/03/15 09:50:38;;;;;;;;;12.00;11.00;;;;;6.67;100.00;98671.03;6277864;20;2786792;-56
2023/03/15 09:53:38;;;;;;;;;14.00;10.80;;;;;6.74;100.00;98667.03;6306060;20;2791042;-56
2023/03/15 09:56:45;;;;;;;;;15.00;13.00;;;;;6.72;100.00;98682.25;6277504;20;3521196;-53
2023/03/15 09:59:16;;;;;;;;;12.00;10.60;;;;;6.76;100.00;98678.44;6333993;20;2785663;-54
2023/03/15 10:01:47;;;;;;;;;10.00;10.00;;;;;6.81;100.00;98689.69;6302393;20;2779470;-53
2023/03/15 10:04:33;;;;;;;;;12.50;11.00;;;;;6.76;100.00;98688.25;6280902;20;2792073;-52
2023/03/15 10:07:05;;;;;;;;;18.50;13.00;;;;;6.85;100.00;98686.84;6281684;20;2803413;-50
2023/03/15 10:09:36;;;;;;;;;9.50;6.50;;;;;6.81;100.00;98689.69;6282233;20;2750395;-52
2023/03/15 10:12:19;;;;;;;;;9.00;9.00;;;;;7.08;100.00;98702.25;6303580;20;2741377;-50
2023/03/15 10:15:42;;;;;;;;;11.50;9.50;;;;;6.99;100.00;98694.84;6311015;20;2779486;-52
2023/03/15 10:18:25;;;;;;;;;12.50;12.50;;;;;7.09;100.00;98701.31;6282638;20;2792070;-56
2023/03/15 10:21:12;;;;;;;;;10.20;9.00;;;;;6.98;98.83;98695.81;6300751;20;2752451;-52
2023/03/15 10:23:54;;;;;;;;;12.20;10.80;;;;;7.21;99.45;98705.88;6335909;20;2789872;-52
2023/03/15 10:26:33;;;;;;;;;10.50;9.00;;;;;7.34;98.27;98705.06;6278900;20;2778630;-52
2023/03/15 10:29:16;;;;;;;;;9.00;8.00;;;;;7.33;98.19;98706.91;6284886;20;2744248;-52
2023/03/15 10:31:47;;;;;;;;;14.60;12.00;;;;;7.32;97.23;98705.19;6302282;20;2794036;-49
2023/03/15 10:34:17;;;;;;;;;15.80;9.60;;;;;7.97;97.60;98711.66;6306764;20;2782637;-53
2023/03/15 10:36:54;;;;;;;;;14.00;10.00;;;;;8.00;95.28;98706.94;6281891;20;2781557;-49
2023/03/15 10:39:25;;;;;;;;;10.00;8.20;;;;;7.79;94.87;98713.72;6305105;20;2760767;-47
2023/03/15 10:41:52;;;;;;;;;11.00;11.00;;;;;8.04;95.46;98718.31;6275975;20;2796131;-50
2023/03/15 10:44:26;;;;;;;;;12.00;10.20;;;;;8.46;95.71;98714.59;6304956;20;2788945;-51
2023/03/15 10:47:16;;;;;;;;;13.00;11.00;;;;;8.56;94.66;98718.34;6285936;20;2787761;-49
2023/03/15 10:49:58;;;;;;;;;12.00;10.33;;;;;8.29;95.77;98718.38;6278041;20;2788873;-51
2023/03/15 10:52:44;;;;;;;;;11.00;10.50;;;;;8.39;94.77;98717.75;6319812;20;2790108;-52
2023/03/15 10:55:20;;;;;;;;;12.80;12.80;;;;;8.48;94.73;98725.19;6306872;20;2786782;-54
2023/03/15 10:57:58;;;;;;;;;12.00;10.00;;;;;8.01;94.80;98719.38;6282346;20;2792069;-53
2023/03/15 11:00:35;;;;;;;;;9.60;8.20;;;;;8.40;95.00;98715.00;6310019;20;2742037;-54
2023/03/15 11:03:22;;;;;;;;;8.40;7.80;;;;;8.30;93.49;98719.25;6342376;20;2746336;-54
2023/03/15 11:05:55;;;;;;;;;8.50;8.00;;;;;7.99;94.26;98715.09;6316117;20;2740928;-53
2023/03/15 11:08:40;;;;;;;;;7.00;7.00;;;;;7.98;92.52;98716.91;6284255;20;2738903;-53
2023/03/15 11:11:09;;;;;;;;;10.50;10.50;;;;;8.29;93.41;98715.72;6314728;20;2781570;-53
2023/03/15 11:13:41;;;;;;;;;13.14;10.00;;;;;8.30;92.92;98727.25;6323537;20;1808654;-53
2023/03/15 11:16:12;;;;;;;;;9.50;9.50;;;;;8.92;93.00;98723.91;6311824;20;2756649;-54
2023/03/15 11:18:58;;;;;;;;;15.00;14.50;;;;;8.52;91.49;98716.81;6283945;20;2496140;-55
2023/03/15 11:21:35;;;;;;;;;10.43;9.14;;;;;8.66;91.47;98725.72;6333600;20;1796107;-53
2023/03/15 11:24:05;;;;;;;;;10.50;9.00;;;;;8.72;93.13;98728.00;6313499;20;2755529;-51
2023/03/15 11:26:40;;;;;;;;;9.00;9.00;;;;;8.32;92.71;98725.31;6299750;20;1810791;-56
2023/03/15 11:29:32;;;;;;;;;8.50;8.00;;;;;8.76;89.39;98724.97;6315212;20;2739932;-54
2023/03/15 11:32:26;;;;;;;;;15.00;9.80;;;;;8.92;91.30;98732.78;6336734;20;2795087;-56
2023/03/15 11:35:35;;;;;;;;;11.00;8.50;;;;;8.76;90.36;98734.81;6282903;20;2763793;-52
2023/03/15 11:38:18;;;;;;;;;4.00;4.00;;;;;8.69;90.82;98728.19;6297379;20;1807657;-54